Portada
METAR-TAF:

METAR-TAF

Aeroports :

Sedalia, Missouri, Estats Units d'Amèrica

latitud: 38-42-44N, longitud: 093-10-28W, altitud: 277 m

Observació

L'informe es va fer fa 47 minuts, a les 16:53 UTC
Vent 4 kt del Sud-Oest
Temperatura 29°C
Humitat 62%
Pressió 1025 hPa
Visibilitat: 16.1 km
Escasses núvols a una alçada de 3600 ft

METAR: KDMO 201653Z AUTO 23004KT 10SM FEW036 29/21 A3028 RMK AO2 SLP244 T02940211

Hora: 12:40 (17:40 UTC)


TAF: manca

Observacions i pronòstics meteorològics de més de 4000 aeroports (METAR i TAF).

Les estacions disponibles són els punts grocs i vermells al mapa.

Posi el ratolí al punt desitjat per veure el nom de l'estació.

Feu clic per veure les observacions i els pronòstics meteorològics.

Per canviar el mapa: feu clic els botons verds amb una creu de color negre per apropar; al botó verd amb un guió per allunyar la imatge; o en les fletxes verdes per a mapes adjacents.


METAR-TAF: